createdAt,value
2019-03-21T00:00:58.146Z,16.43
2019-03-21T00:03:31.761Z,16.23
2019-03-21T00:06:07.462Z,16.87
2019-03-21T00:08:41.027Z,16.40
2019-03-21T00:11:50.597Z,17.43
2019-03-21T00:14:42.205Z,16.90
2019-03-21T00:17:22.019Z,16.90
2019-03-21T00:19:55.627Z,18.37
2019-03-21T00:22:29.468Z,18.40
2019-03-21T00:25:03.399Z,19.00
2019-03-21T00:27:37.006Z,19.00
2019-03-21T00:30:15.955Z,20.27
2019-03-21T00:32:49.897Z,20.53
2019-03-21T00:35:23.539Z,19.47
2019-03-21T00:37:57.157Z,19.90
2019-03-21T00:40:36.795Z,19.00
2019-03-21T00:43:12.225Z,19.33
2019-03-21T00:48:20.606Z,19.50
2019-03-21T00:50:54.281Z,19.30
2019-03-21T00:53:28.122Z,19.00
2019-03-21T00:56:01.725Z,18.07
2019-03-21T00:58:35.279Z,19.77
2019-03-21T01:01:09.338Z,17.40
2019-03-21T01:03:43.019Z,19.23
2019-03-21T01:06:16.825Z,18.33
2019-03-21T01:08:50.398Z,18.57
2019-03-21T01:11:24.196Z,18.57
2019-03-21T01:13:57.762Z,19.50
2019-03-21T01:16:31.437Z,18.67
2019-03-21T01:19:05.078Z,19.83
2019-03-21T01:21:38.686Z,17.97
2019-03-21T01:24:12.342Z,18.43
2019-03-21T01:26:46.090Z,18.40
2019-03-21T01:29:19.657Z,18.07
2019-03-21T01:31:54.606Z,18.60
2019-03-21T01:34:28.232Z,19.20
2019-03-21T01:37:01.830Z,19.33
2019-03-21T01:39:35.404Z,19.80
2019-03-21T01:42:08.992Z,20.20
2019-03-21T01:44:42.495Z,20.87
2019-03-21T01:47:16.092Z,21.23
2019-03-21T01:49:49.613Z,21.40
2019-03-21T01:52:23.150Z,21.93
2019-03-21T01:54:56.750Z,21.10
2019-03-21T01:57:30.425Z,22.60
2019-03-21T02:00:09.230Z,22.97
2019-03-21T02:02:43.170Z,21.37
2019-03-21T02:05:16.927Z,22.43
2019-03-21T02:07:50.492Z,23.10
2019-03-21T02:10:24.027Z,22.67
2019-03-21T02:12:57.670Z,22.40
2019-03-21T02:15:31.218Z,23.97
2019-03-21T02:18:05.218Z,24.40
2019-03-21T02:20:38.882Z,23.20
2019-03-21T02:23:12.585Z,24.37
2019-03-21T02:25:46.539Z,24.53
2019-03-21T02:28:20.336Z,23.80
2019-03-21T02:30:54.350Z,23.87
2019-03-21T02:33:37.245Z,23.73
2019-03-21T02:36:12.617Z,23.33
2019-03-21T02:38:46.231Z,24.30
2019-03-21T02:41:19.789Z,24.87
2019-03-21T02:43:53.419Z,23.07
2019-03-21T02:46:26.986Z,25.80
2019-03-21T02:49:00.877Z,25.83
2019-03-21T02:51:34.491Z,25.87
2019-03-21T02:54:08.350Z,25.07
2019-03-21T02:56:41.998Z,26.83
2019-03-21T02:59:15.593Z,25.67
2019-03-21T03:01:49.209Z,26.47
2019-03-21T03:04:23.072Z,26.40
2019-03-21T03:06:56.680Z,26.00
2019-03-21T03:09:30.281Z,27.60
2019-03-21T03:12:04.123Z,27.53
2019-03-21T03:14:37.773Z,28.33
2019-03-21T03:17:11.412Z,30.57
2019-03-21T03:19:45.009Z,31.13
2019-03-21T03:22:18.585Z,31.13
2019-03-21T03:24:52.439Z,32.13
2019-03-21T03:27:25.949Z,32.30
2019-03-21T03:29:59.481Z,32.13
2019-03-21T03:32:33.278Z,32.57
2019-03-21T03:35:09.645Z,32.50
2019-03-21T03:37:44.279Z,33.40
2019-03-21T03:40:23.948Z,33.93
2019-03-21T03:42:57.599Z,33.23
2019-03-21T03:45:37.836Z,34.37
2019-03-21T03:48:09.048Z,33.20
2019-03-21T03:50:42.620Z,34.73
2019-03-21T03:53:16.493Z,34.80
2019-03-21T03:55:50.225Z,35.97
2019-03-21T03:58:32.560Z,34.53
2019-03-21T04:01:06.199Z,37.40
2019-03-21T04:03:39.873Z,36.70
2019-03-21T04:06:13.514Z,36.97
2019-03-21T04:08:47.249Z,36.70
2019-03-21T04:11:21.061Z,37.03
2019-03-21T04:13:54.663Z,36.50
2019-03-21T04:16:28.229Z,37.23
2019-03-21T04:19:01.839Z,37.30
2019-03-21T04:21:35.408Z,38.70
2019-03-21T04:24:09.018Z,35.70
2019-03-21T04:26:42.654Z,38.27
2019-03-21T04:29:16.519Z,38.80
2019-03-21T04:31:50.103Z,38.20
2019-03-21T04:34:25.475Z,37.40
2019-03-21T04:36:59.097Z,38.83
2019-03-21T04:39:32.644Z,38.77
2019-03-21T04:42:06.221Z,38.37
2019-03-21T04:44:39.816Z,40.30
2019-03-21T04:47:13.416Z,39.63
2019-03-21T04:49:46.917Z,40.17
2019-03-21T04:52:20.706Z,40.37
2019-03-21T04:54:54.288Z,40.97
2019-03-21T04:57:28.174Z,43.40
2019-03-21T05:00:03.676Z,39.90
2019-03-21T05:02:37.015Z,41.73
2019-03-21T05:05:11.964Z,40.83
2019-03-21T05:07:45.593Z,42.07
2019-03-21T05:10:19.338Z,42.07
2019-03-21T05:12:53.061Z,42.90
2019-03-21T05:15:35.343Z,42.07
2019-03-21T05:18:12.024Z,43.67
2019-03-21T05:20:45.623Z,43.53
2019-03-21T05:23:19.157Z,45.07
2019-03-21T05:25:52.788Z,46.20
2019-03-21T05:28:26.356Z,45.93
2019-03-21T05:31:14.814Z,44.37
2019-03-21T05:33:48.391Z,43.43
2019-03-21T05:36:22.247Z,45.13
2019-03-21T05:38:55.994Z,44.13
2019-03-21T05:41:29.595Z,43.37
2019-03-21T05:44:15.172Z,43.33
2019-03-21T05:46:48.778Z,42.23
2019-03-21T05:49:22.367Z,42.00
2019-03-21T05:51:55.967Z,42.87
2019-03-21T05:54:29.475Z,42.10
2019-03-21T05:57:03.070Z,43.10
2019-03-21T05:59:36.562Z,41.13
2019-03-21T06:02:10.084Z,42.57
2019-03-21T06:04:43.655Z,39.63
2019-03-21T06:07:20.328Z,40.90
2019-03-21T06:09:54.095Z,41.87
2019-03-21T06:12:27.701Z,39.37
2019-03-21T06:15:02.379Z,40.33
2019-03-21T06:17:36.225Z,39.37
2019-03-21T06:20:15.815Z,36.90
2019-03-21T06:23:08.756Z,35.53
2019-03-21T06:25:48.073Z,36.73
2019-03-21T06:28:21.714Z,35.37
2019-03-21T06:30:55.321Z,33.77
2019-03-21T06:33:28.922Z,32.27
2019-03-21T06:36:02.523Z,33.53
2019-03-21T06:38:36.115Z,32.83
2019-03-21T06:41:09.680Z,32.83
2019-03-21T06:43:43.286Z,31.53
2019-03-21T06:46:16.926Z,29.63
2019-03-21T06:48:50.594Z,28.83
2019-03-21T06:51:24.165Z,27.20
2019-03-21T06:53:57.970Z,25.07
2019-03-21T06:56:31.614Z,25.90
2019-03-21T06:59:05.359Z,26.93
2019-03-21T07:01:38.930Z,27.73
2019-03-21T07:04:12.587Z,27.37
2019-03-21T07:06:46.189Z,28.57
2019-03-21T07:09:19.690Z,29.07
2019-03-21T07:11:53.296Z,32.13
2019-03-21T07:14:26.946Z,31.10
2019-03-21T07:17:00.963Z,30.00
2019-03-21T07:19:34.510Z,29.63
2019-03-21T07:22:08.106Z,30.70
2019-03-21T07:24:41.686Z,30.10
2019-03-21T07:27:15.293Z,29.73
2019-03-21T07:29:48.866Z,29.20
2019-03-21T07:32:32.890Z,28.00
2019-03-21T07:34:57.698Z,27.70
2019-03-21T07:37:31.366Z,25.40
2019-03-21T07:40:08.043Z,26.37
2019-03-21T07:42:41.714Z,24.30
2019-03-21T07:45:15.698Z,24.00
2019-03-21T07:47:49.316Z,24.37
2019-03-21T07:50:22.959Z,24.03
2019-03-21T07:52:56.560Z,23.20
2019-03-21T07:55:30.162Z,21.97
2019-03-21T07:58:04.417Z,24.82
2019-03-21T08:00:37.984Z,26.73
2019-03-21T08:03:11.583Z,22.73
2019-03-21T08:05:45.157Z,21.27
2019-03-21T08:08:18.833Z,20.13
2019-03-21T08:10:52.409Z,18.73
2019-03-21T08:13:26.021Z,20.07
2019-03-21T08:15:59.726Z,19.93
2019-03-21T08:18:33.305Z,19.30
2019-03-21T08:21:06.922Z,19.83
2019-03-21T08:23:40.433Z,16.70
2019-03-21T08:26:14.040Z,19.33
2019-03-21T08:28:47.621Z,18.77
2019-03-21T08:31:21.812Z,20.80
2019-03-21T08:36:28.743Z,20.80
2019-03-21T08:39:02.333Z,19.57
2019-03-21T08:41:36.069Z,22.13
2019-03-21T08:44:09.750Z,21.23
2019-03-21T08:46:43.893Z,23.42
2019-03-21T08:49:17.589Z,24.33
2019-03-21T08:51:51.156Z,24.37
2019-03-21T08:54:25.373Z,24.75
2019-03-21T08:56:58.951Z,24.67
2019-03-21T08:59:33.121Z,22.02
2019-03-21T09:02:07.209Z,20.77
2019-03-21T09:04:41.397Z,19.85
2019-03-21T09:07:15.585Z,17.75
2019-03-21T09:09:49.742Z,18.10
2019-03-21T09:12:24.000Z,17.92
2019-03-21T09:14:58.142Z,18.32
2019-03-21T09:17:32.330Z,17.57
2019-03-21T09:20:08.161Z,17.87
2019-03-21T09:22:42.428Z,18.82
2019-03-21T09:25:16.593Z,21.23
2019-03-21T09:28:01.958Z,20.10
2019-03-21T09:30:26.636Z,20.37
2019-03-21T09:33:00.889Z,21.70
2019-03-21T09:35:35.084Z,21.82
2019-03-21T09:38:09.242Z,22.02
2019-03-21T09:40:43.629Z,21.65
2019-03-21T09:43:17.837Z,23.30
2019-03-21T09:45:52.074Z,25.23
2019-03-21T09:48:26.609Z,23.35
2019-03-21T09:51:00.821Z,22.67
2019-03-21T09:53:35.021Z,22.90
2019-03-21T09:56:09.279Z,23.32
2019-03-21T09:58:43.452Z,23.45
2019-03-21T10:01:17.632Z,24.18
2019-03-21T10:03:52.083Z,24.12
2019-03-21T10:06:26.173Z,23.20
2019-03-21T10:09:00.504Z,23.02
2019-03-21T10:11:34.740Z,20.05
2019-03-21T10:14:08.957Z,21.57
2019-03-21T10:16:43.160Z,22.07
2019-03-21T10:19:17.352Z,20.72
2019-03-21T10:21:51.593Z,20.00
2019-03-21T10:24:25.787Z,19.62
2019-03-21T10:27:00.041Z,18.37
2019-03-21T10:29:34.240Z,18.15
2019-03-21T10:32:14.147Z,18.30
2019-03-21T10:34:44.287Z,19.12
2019-03-21T10:37:18.600Z,19.17
2019-03-21T10:39:52.765Z,19.27
2019-03-21T10:42:26.981Z,19.25
2019-03-21T10:45:01.151Z,20.48
2019-03-21T10:47:35.744Z,19.48
2019-03-21T10:50:10.873Z,19.50
2019-03-21T10:52:45.072Z,18.23
2019-03-21T10:55:19.213Z,21.45
2019-03-21T10:57:53.401Z,21.12
2019-03-21T11:00:27.728Z,22.93
2019-03-21T11:03:01.983Z,24.40
2019-03-21T11:05:36.132Z,27.60
2019-03-21T11:08:10.396Z,28.20
2019-03-21T11:10:47.070Z,27.98
2019-03-21T11:13:20.688Z,25.77
2019-03-21T11:15:54.837Z,24.50
2019-03-21T11:18:35.982Z,25.88
2019-03-21T11:21:05.001Z,22.80
2019-03-21T11:23:39.175Z,21.15
2019-03-21T11:26:13.376Z,19.20
2019-03-21T11:28:47.547Z,19.60
2019-03-21T11:31:21.760Z,19.48
2019-03-21T11:33:55.920Z,19.73
2019-03-21T11:36:38.264Z,18.15
2019-03-21T11:39:07.973Z,19.50
2019-03-21T11:41:42.187Z,23.70
2019-03-21T11:44:16.374Z,24.92
2019-03-21T11:46:50.566Z,24.37
2019-03-21T11:49:25.233Z,27.87
2019-03-21T11:51:59.429Z,26.87
2019-03-21T11:54:33.561Z,26.12
2019-03-21T11:57:07.815Z,26.93
2019-03-21T11:59:51.421Z,23.40
2019-03-21T12:02:27.008Z,22.35
2019-03-21T12:04:56.622Z,23.85
2019-03-21T12:07:30.818Z,23.18
2019-03-21T12:10:10.464Z,23.92
2019-03-21T12:12:44.665Z,23.22
2019-03-21T12:15:18.882Z,23.50
2019-03-21T12:17:53.099Z,23.57
2019-03-21T12:20:31.479Z,24.63
2019-03-21T12:23:05.790Z,24.23
2019-03-21T12:25:40.329Z,25.40
2019-03-21T12:28:14.506Z,24.18
2019-03-21T12:30:48.681Z,24.82
2019-03-21T12:33:22.846Z,25.32
2019-03-21T12:38:30.495Z,24.52
2019-03-21T12:41:04.789Z,25.88
2019-03-21T12:43:38.971Z,24.27
2019-03-21T12:46:13.198Z,24.50
2019-03-21T12:48:47.344Z,25.57
2019-03-21T12:51:21.515Z,25.25
2019-03-21T12:53:55.700Z,24.98
2019-03-21T12:56:29.864Z,25.55
2019-03-21T12:59:04.135Z,24.23
2019-03-21T13:01:38.489Z,24.85
2019-03-21T13:04:12.695Z,27.17
2019-03-21T13:06:47.010Z,25.00
2019-03-21T13:09:21.167Z,23.95
2019-03-21T13:11:55.367Z,23.20
2019-03-21T13:14:29.567Z,23.20
2019-03-21T13:17:04.123Z,21.95
2019-03-21T13:19:38.288Z,21.45
2019-03-21T13:22:12.472Z,21.65
2019-03-21T13:24:46.607Z,20.17
2019-03-21T13:27:20.779Z,18.55
2019-03-21T13:29:54.974Z,19.52
2019-03-21T13:32:29.145Z,21.27
2019-03-21T13:35:06.322Z,20.72
2019-03-21T13:37:40.645Z,19.20
2019-03-21T13:40:14.905Z,19.17
2019-03-21T13:42:49.133Z,21.25
2019-03-21T13:45:23.430Z,16.42
2019-03-21T13:47:57.571Z,13.32
2019-03-21T13:50:31.690Z,14.47
2019-03-21T13:53:17.822Z,12.88
2019-03-21T13:55:41.810Z,13.10
2019-03-21T13:58:15.968Z,13.25
2019-03-21T14:00:50.423Z,12.85
2019-03-21T14:03:25.637Z,13.88
2019-03-21T14:05:59.810Z,12.23
2019-03-21T14:08:34.198Z,13.03
2019-03-21T14:11:08.434Z,13.30
2019-03-21T14:13:42.617Z,13.70
2019-03-21T14:16:16.813Z,14.25
2019-03-21T14:18:51.485Z,13.62
2019-03-21T14:21:25.633Z,14.15
2019-03-21T14:23:59.811Z,14.70
2019-03-21T14:26:34.062Z,15.13
2019-03-21T14:29:12.772Z,15.72
2019-03-21T14:31:44.072Z,15.00
2019-03-21T14:34:18.298Z,15.20
2019-03-21T14:36:52.543Z,15.75
2019-03-21T14:39:27.005Z,15.43
2019-03-21T14:42:01.152Z,16.27
2019-03-21T14:44:35.485Z,15.95
2019-03-21T14:47:09.647Z,17.45
2019-03-21T14:49:43.905Z,16.75
2019-03-21T14:52:17.474Z,16.20
2019-03-21T14:54:51.676Z,16.97
2019-03-21T14:57:25.926Z,16.75
2019-03-21T15:00:00.396Z,17.75
2019-03-21T15:02:34.071Z,17.37
2019-03-21T15:05:08.978Z,17.55
2019-03-21T15:07:43.241Z,17.17
2019-03-21T15:10:20.635Z,17.87
2019-03-21T15:12:54.898Z,17.70
2019-03-21T15:15:29.003Z,19.17
2019-03-21T15:18:03.130Z,18.37
2019-03-21T15:20:37.611Z,18.98
2019-03-21T15:23:11.782Z,19.80
2019-03-21T15:25:46.350Z,19.52
2019-03-21T15:28:20.553Z,19.42
2019-03-21T15:30:54.890Z,18.65
2019-03-21T15:33:30.119Z,19.57
2019-03-21T15:36:04.324Z,20.02
2019-03-21T15:38:38.500Z,20.25
2019-03-21T15:41:12.758Z,20.80
2019-03-21T15:43:46.365Z,20.57
2019-03-21T15:46:20.568Z,20.95
2019-03-21T15:48:54.773Z,21.20
2019-03-21T15:51:28.939Z,20.88
2019-03-21T15:56:36.527Z,21.65
2019-03-21T15:59:12.083Z,21.15
2019-03-21T16:01:46.324Z,20.92
2019-03-21T16:04:20.563Z,22.25
2019-03-21T16:06:54.763Z,23.40
2019-03-21T16:09:29.004Z,22.77
2019-03-21T16:12:03.208Z,22.13
2019-03-21T16:14:37.337Z,22.15
2019-03-21T16:17:11.532Z,23.32
2019-03-21T16:19:45.777Z,24.25
2019-03-21T16:22:20.360Z,26.35
2019-03-21T16:24:54.553Z,23.42
2019-03-21T16:27:28.716Z,24.07
2019-03-21T16:30:03.930Z,24.65
2019-03-21T16:32:38.137Z,25.77
2019-03-21T16:35:12.604Z,24.83
2019-03-21T16:37:46.291Z,24.80
2019-03-21T16:40:21.426Z,25.62
2019-03-21T16:42:55.012Z,24.87
2019-03-21T16:45:30.546Z,23.20
2019-03-21T16:48:05.354Z,24.02
2019-03-21T16:50:39.533Z,25.30
2019-03-21T16:53:13.697Z,26.50
2019-03-21T16:55:47.296Z,24.80
2019-03-21T16:58:21.424Z,24.35
2019-03-21T17:00:55.569Z,26.02
2019-03-21T17:03:29.760Z,25.50
2019-03-21T17:06:03.358Z,25.02
2019-03-21T17:08:37.520Z,25.77
2019-03-21T17:11:11.695Z,24.98
2019-03-21T17:13:47.088Z,24.15
2019-03-21T17:16:21.205Z,23.67
2019-03-21T17:18:55.419Z,24.35
2019-03-21T17:21:32.588Z,24.47
2019-03-21T17:24:06.269Z,22.90
2019-03-21T17:26:39.841Z,23.57
2019-03-21T17:29:13.479Z,25.53
2019-03-21T17:31:47.058Z,23.60
2019-03-21T17:34:20.665Z,26.07
2019-03-21T17:36:54.824Z,25.12
2019-03-21T17:39:28.507Z,24.90
2019-03-21T17:42:02.960Z,26.87
2019-03-21T17:44:37.149Z,23.55
2019-03-21T17:47:13.065Z,23.90
2019-03-21T17:49:46.657Z,27.47
2019-03-21T17:52:20.843Z,26.25
2019-03-21T17:54:54.996Z,25.20
2019-03-21T17:57:34.344Z,25.17
2019-03-21T18:00:13.514Z,25.35
2019-03-21T18:02:48.109Z,24.90
2019-03-21T18:05:21.690Z,25.80
2019-03-21T18:07:55.368Z,24.80
2019-03-21T18:10:32.865Z,26.20
2019-03-21T18:13:07.123Z,26.15
2019-03-21T18:15:41.085Z,24.83
2019-03-21T18:18:14.683Z,24.47
2019-03-21T18:20:48.367Z,26.63
2019-03-21T18:23:22.507Z,25.72
2019-03-21T18:25:56.072Z,24.13
2019-03-21T18:28:29.820Z,27.17
2019-03-21T18:31:04.116Z,24.70
2019-03-21T18:33:37.804Z,27.00
2019-03-21T18:36:12.357Z,26.40
2019-03-21T18:38:57.477Z,26.48
2019-03-21T18:41:22.376Z,26.02
2019-03-21T18:43:56.657Z,25.68
2019-03-21T18:46:30.780Z,28.05
2019-03-21T18:49:04.510Z,27.43
2019-03-21T18:51:38.087Z,25.67
2019-03-21T18:54:13.630Z,26.60
2019-03-21T18:56:47.183Z,28.80
2019-03-21T18:59:20.786Z,27.90
2019-03-21T19:01:58.783Z,25.70
2019-03-21T19:04:29.683Z,26.73
2019-03-21T19:07:03.481Z,26.13
2019-03-21T19:09:37.071Z,26.17
2019-03-21T19:12:13.012Z,25.02
2019-03-21T19:14:46.571Z,26.40
2019-03-21T19:17:20.200Z,25.17
2019-03-21T19:19:54.356Z,26.15
2019-03-21T19:22:27.992Z,25.97
2019-03-21T19:25:01.572Z,26.33
2019-03-21T19:27:35.846Z,25.57
2019-03-21T19:30:15.644Z,25.20
2019-03-21T19:32:49.492Z,24.80
2019-03-21T19:35:23.813Z,25.85
2019-03-21T19:37:57.967Z,26.27
2019-03-21T19:40:31.735Z,25.60
2019-03-21T19:43:05.895Z,25.17
2019-03-21T19:45:40.087Z,26.35
2019-03-21T19:48:13.705Z,27.40
2019-03-21T19:50:47.294Z,27.27
2019-03-21T19:53:20.933Z,27.40
2019-03-21T19:55:54.821Z,27.10
2019-03-21T19:58:28.499Z,27.63
2019-03-21T20:01:02.074Z,26.57
2019-03-21T20:03:36.352Z,28.42
2019-03-21T20:06:09.924Z,26.87
2019-03-21T20:08:43.563Z,26.20
2019-03-21T20:11:17.209Z,28.77
2019-03-21T20:13:50.807Z,28.53
2019-03-21T20:16:24.386Z,28.05
2019-03-21T20:18:57.987Z,25.30
2019-03-21T20:21:31.636Z,28.53
2019-03-21T20:24:05.371Z,27.93
2019-03-21T20:26:38.879Z,28.70
2019-03-21T20:29:12.482Z,28.60
2019-03-21T20:31:46.661Z,29.37
2019-03-21T20:34:20.949Z,29.60
2019-03-21T20:36:54.542Z,28.00
2019-03-21T20:39:28.170Z,30.43
2019-03-21T20:42:01.758Z,28.40
2019-03-21T20:44:35.437Z,28.80
2019-03-21T20:47:09.039Z,28.77
2019-03-21T20:49:42.646Z,29.47
2019-03-21T20:52:16.326Z,29.13
2019-03-21T20:54:50.126Z,29.10
2019-03-21T20:57:23.694Z,28.70
2019-03-21T20:59:57.315Z,29.63
2019-03-21T21:02:30.946Z,27.23
2019-03-21T21:05:05.444Z,29.90
2019-03-21T21:07:39.014Z,26.50
2019-03-21T21:10:13.683Z,28.43
2019-03-21T21:12:47.336Z,29.43
2019-03-21T21:15:21.078Z,27.17
2019-03-21T21:17:54.653Z,30.30
2019-03-21T21:20:28.268Z,28.10
2019-03-21T21:23:01.769Z,28.83
2019-03-21T21:25:35.370Z,28.87
2019-03-21T21:28:08.946Z,31.10
2019-03-21T21:30:42.561Z,31.63
2019-03-21T21:33:16.255Z,30.77
2019-03-21T21:35:49.897Z,29.30
2019-03-21T21:38:23.503Z,31.10
2019-03-21T21:40:57.081Z,31.50
2019-03-21T21:43:30.742Z,29.87
2019-03-21T21:46:04.741Z,31.13
2019-03-21T21:48:38.318Z,30.73
2019-03-21T21:51:11.922Z,31.97
2019-03-21T21:53:45.566Z,32.10
2019-03-21T21:56:19.306Z,32.63
2019-03-21T21:58:52.976Z,33.97
2019-03-21T22:01:26.562Z,33.43
2019-03-21T22:04:04.908Z,34.03
2019-03-21T22:06:35.569Z,33.43
2019-03-21T22:09:09.252Z,32.90
2019-03-21T22:11:42.826Z,34.10
2019-03-21T22:14:16.454Z,34.70
2019-03-21T22:16:50.030Z,34.13
2019-03-21T22:19:23.614Z,35.30
2019-03-21T22:21:57.318Z,34.20
2019-03-21T22:24:30.892Z,35.23
2019-03-21T22:27:04.628Z,34.23
2019-03-21T22:29:38.198Z,36.37
2019-03-21T22:32:11.795Z,35.00
2019-03-21T22:34:45.499Z,32.60
2019-03-21T22:37:19.365Z,34.90
2019-03-21T22:39:52.889Z,35.50
2019-03-21T22:42:26.450Z,32.93
2019-03-21T22:45:00.400Z,34.93
2019-03-21T22:47:33.990Z,31.63
2019-03-21T22:50:10.574Z,33.43
2019-03-21T22:52:45.227Z,32.17
2019-03-21T22:55:19.194Z,30.57
2019-03-21T22:57:52.965Z,30.77
2019-03-21T23:00:40.756Z,31.03
2019-03-21T23:03:14.571Z,28.87
2019-03-21T23:05:49.173Z,29.13
2019-03-21T23:08:22.733Z,28.07
2019-03-21T23:10:56.357Z,31.40
2019-03-21T23:13:30.775Z,28.10
2019-03-21T23:16:04.494Z,27.90
2019-03-21T23:18:38.107Z,29.07
2019-03-21T23:21:11.697Z,28.13
2019-03-21T23:23:45.317Z,27.67
2019-03-21T23:26:18.905Z,26.43
2019-03-21T23:28:52.503Z,25.13
2019-03-21T23:31:26.117Z,25.13
2019-03-21T23:33:59.801Z,25.37
2019-03-21T23:36:33.664Z,23.53
2019-03-21T23:39:07.282Z,23.43
2019-03-21T23:41:40.925Z,22.83
2019-03-21T23:44:14.548Z,22.20
2019-03-21T23:46:48.129Z,23.67
2019-03-21T23:49:21.716Z,23.07
2019-03-21T23:51:55.238Z,23.07
2019-03-21T23:54:28.851Z,21.33
2019-03-21T23:57:04.847Z,22.30
2019-03-21T23:59:37.761Z,21.97
